createdAt,value
2018-01-23T00:00:44.699Z,27.07
2018-01-23T00:03:11.087Z,28.80
2018-01-23T00:05:37.558Z,28.33
2018-01-23T00:08:04.256Z,26.47
2018-01-23T00:10:30.838Z,25.47
2018-01-23T00:12:57.542Z,29.40
2018-01-23T00:15:23.912Z,27.93
2018-01-23T00:17:50.341Z,27.13
2018-01-23T00:20:18.415Z,27.57
2018-01-23T00:22:44.812Z,28.90
2018-01-23T00:25:11.634Z,29.20
2018-01-23T00:27:37.983Z,25.33
2018-01-23T00:30:04.428Z,26.87
2018-01-23T00:32:31.611Z,27.00
2018-01-23T00:34:58.076Z,27.70
2018-01-23T00:37:24.416Z,24.77
2018-01-23T00:39:50.946Z,27.50
2018-01-23T00:42:17.307Z,24.40
2018-01-23T00:44:43.781Z,25.87
2018-01-23T00:47:10.654Z,27.13
2018-01-23T00:49:37.377Z,26.77
2018-01-23T00:52:03.820Z,25.60
2018-01-23T00:54:30.237Z,28.13
2018-01-23T00:56:56.686Z,27.00
2018-01-23T00:59:23.715Z,27.83
2018-01-23T01:01:50.866Z,27.23
2018-01-23T01:04:17.901Z,25.70
2018-01-23T01:06:45.157Z,27.90
2018-01-23T01:09:11.644Z,27.00
2018-01-23T01:11:38.536Z,25.83
2018-01-23T01:14:05.799Z,27.63
2018-01-23T01:16:32.314Z,24.53
2018-01-23T01:18:58.692Z,26.27
2018-01-23T01:21:25.149Z,29.50
2018-01-23T01:23:51.641Z,30.20
2018-01-23T01:26:18.386Z,26.50
2018-01-23T01:28:44.793Z,26.83
2018-01-23T01:31:12.353Z,27.13
2018-01-23T01:33:38.947Z,27.80
2018-01-23T01:36:05.476Z,26.53
2018-01-23T01:38:32.006Z,27.17
2018-01-23T01:40:58.797Z,26.93
2018-01-23T01:43:25.480Z,26.87
2018-01-23T01:45:52.093Z,26.73
2018-01-23T01:48:19.104Z,27.73
2018-01-23T01:50:46.731Z,26.10
2018-01-23T01:53:13.129Z,29.30
2018-01-23T01:55:39.833Z,28.40
2018-01-23T01:58:07.729Z,28.03
2018-01-23T02:00:34.925Z,26.30
2018-01-23T02:03:01.340Z,27.60
2018-01-23T02:05:27.946Z,29.90
2018-01-23T02:07:54.494Z,25.70
2018-01-23T02:10:21.022Z,28.00
2018-01-23T02:12:47.840Z,23.67
2018-01-23T02:15:15.080Z,26.17
2018-01-23T02:17:41.922Z,26.50
2018-01-23T02:20:08.362Z,28.27
2018-01-23T02:22:35.136Z,26.60
2018-01-23T02:25:01.648Z,25.67
2018-01-23T02:27:28.113Z,28.43
2018-01-23T02:29:55.966Z,27.60
2018-01-23T02:32:22.827Z,28.20
2018-01-23T02:34:49.685Z,29.57
2018-01-23T02:37:16.909Z,26.27
2018-01-23T02:39:44.084Z,28.53
2018-01-23T02:42:10.585Z,28.50
2018-01-23T02:44:37.053Z,28.57
2018-01-23T02:47:03.436Z,27.07
2018-01-23T02:49:30.772Z,29.47
2018-01-23T02:51:57.253Z,29.57
2018-01-23T02:54:23.756Z,29.37
2018-01-23T02:56:50.191Z,30.07
2018-01-23T02:59:16.700Z,28.80
2018-01-23T03:01:43.113Z,29.80
2018-01-23T03:04:09.530Z,26.90
2018-01-23T03:06:36.020Z,28.87
2018-01-23T03:09:02.461Z,27.70
2018-01-23T03:11:28.925Z,28.27
2018-01-23T03:13:55.358Z,30.07
2018-01-23T03:16:21.752Z,29.90
2018-01-23T03:18:49.874Z,29.70
2018-01-23T03:21:16.438Z,30.23
2018-01-23T03:23:42.886Z,28.80
2018-01-23T03:26:09.666Z,31.00
2018-01-23T03:28:36.183Z,27.70
2018-01-23T03:31:02.718Z,29.27
2018-01-23T03:33:29.182Z,30.27
2018-01-23T03:35:56.419Z,29.97
2018-01-23T03:38:22.824Z,30.77
2018-01-23T03:40:49.193Z,30.10
2018-01-23T03:43:15.564Z,29.70
2018-01-23T03:45:42.676Z,30.87
2018-01-23T03:48:09.794Z,31.67
2018-01-23T03:50:36.598Z,28.57
2018-01-23T03:53:02.967Z,31.23
2018-01-23T03:55:29.398Z,31.90
2018-01-23T03:57:57.519Z,30.73
2018-01-23T04:00:24.674Z,31.80
2018-01-23T04:02:51.618Z,32.37
2018-01-23T04:05:18.052Z,32.80
2018-01-23T04:07:44.490Z,31.17
2018-01-23T04:10:11.336Z,32.53
2018-01-23T04:12:37.790Z,31.70
2018-01-23T04:15:04.232Z,28.90
2018-01-23T04:17:30.759Z,28.87
2018-01-23T04:19:57.300Z,32.20
2018-01-23T04:22:24.471Z,28.23
2018-01-23T04:24:50.859Z,30.37
2018-01-23T04:27:17.334Z,31.63
2018-01-23T04:29:43.737Z,32.47
2018-01-23T04:32:11.834Z,31.77
2018-01-23T04:34:38.290Z,27.97
2018-01-23T04:37:04.661Z,29.40
2018-01-23T04:39:31.514Z,29.07
2018-01-23T04:41:58.358Z,29.20
2018-01-23T04:44:24.760Z,31.90
2018-01-23T04:46:51.325Z,27.50
2018-01-23T04:49:17.772Z,29.80
2018-01-23T04:51:45.084Z,28.80
2018-01-23T04:54:11.437Z,27.73
2018-01-23T04:56:37.875Z,28.37
2018-01-23T04:59:04.236Z,28.53
2018-01-23T05:01:30.680Z,29.30
2018-01-23T05:03:57.142Z,29.87
2018-01-23T05:06:23.527Z,30.07
2018-01-23T05:08:50.650Z,27.40
2018-01-23T05:11:17.185Z,32.53
2018-01-23T05:13:44.346Z,30.30
2018-01-23T05:16:10.709Z,29.00
2018-01-23T05:18:37.826Z,32.57
2018-01-23T05:21:04.919Z,29.03
2018-01-23T05:23:31.396Z,31.20
2018-01-23T05:25:57.911Z,33.07
2018-01-23T05:28:24.289Z,31.57
2018-01-23T05:30:51.142Z,32.10
2018-01-23T05:33:18.377Z,29.60
2018-01-23T05:35:44.860Z,30.60
2018-01-23T05:38:11.404Z,27.27
2018-01-23T05:40:38.729Z,31.50
2018-01-23T05:43:06.897Z,33.40
2018-01-23T05:45:33.677Z,30.70
2018-01-23T05:48:00.518Z,32.50
2018-01-23T05:50:27.289Z,33.60
2018-01-23T05:52:54.617Z,33.80
2018-01-23T05:55:21.318Z,29.67
2018-01-23T05:57:49.557Z,30.10
2018-01-23T06:00:16.283Z,32.93
2018-01-23T06:02:42.869Z,32.40
2018-01-23T06:05:09.466Z,32.80
2018-01-23T06:07:37.563Z,30.63
2018-01-23T06:10:04.610Z,29.97
2018-01-23T06:12:31.050Z,31.33
2018-01-23T06:14:58.189Z,29.57
2018-01-23T06:17:25.292Z,32.43
2018-01-23T06:19:52.500Z,30.67
2018-01-23T06:22:18.931Z,33.37
2018-01-23T06:24:46.154Z,29.70
2018-01-23T06:27:12.570Z,32.00
2018-01-23T06:29:39.661Z,33.30
2018-01-23T06:32:06.505Z,33.43
2018-01-23T06:34:32.875Z,30.07
2018-01-23T06:36:59.694Z,30.80
2018-01-23T06:39:26.185Z,30.10
2018-01-23T06:41:53.319Z,30.87
2018-01-23T06:44:19.837Z,28.60
2018-01-23T06:46:47.105Z,31.87
2018-01-23T06:49:14.458Z,30.57
2018-01-23T06:51:40.825Z,28.73
2018-01-23T06:54:07.994Z,28.80
2018-01-23T06:56:36.084Z,28.97
2018-01-23T06:59:02.571Z,26.73
2018-01-23T07:01:29.418Z,27.97
2018-01-23T07:03:56.573Z,26.70
2018-01-23T07:06:23.710Z,27.50
2018-01-23T07:08:50.872Z,30.17
2018-01-23T07:11:17.300Z,28.57
2018-01-23T07:13:43.740Z,31.07
2018-01-23T07:16:10.988Z,28.10
2018-01-23T07:18:37.552Z,30.90
2018-01-23T07:21:04.409Z,29.20
2018-01-23T07:23:30.858Z,27.07
2018-01-23T07:25:57.221Z,27.67
2018-01-23T07:28:23.813Z,27.60
2018-01-23T07:30:50.331Z,30.73
2018-01-23T07:33:16.735Z,25.63
2018-01-23T07:35:43.166Z,28.00
2018-01-23T07:38:10.367Z,26.87
2018-01-23T07:40:37.235Z,27.60
2018-01-23T07:43:04.114Z,26.17
2018-01-23T07:45:31.868Z,26.23
2018-01-23T07:47:59.019Z,28.37
2018-01-23T07:50:25.840Z,25.40
2018-01-23T07:52:52.310Z,27.30
2018-01-23T07:55:18.870Z,28.67
2018-01-23T07:57:46.067Z,29.27
2018-01-23T08:00:12.476Z,28.37
2018-01-23T08:02:38.824Z,27.57
2018-01-23T08:05:05.212Z,28.20
2018-01-23T08:07:32.004Z,25.13
2018-01-23T08:09:59.204Z,27.40
2018-01-23T08:12:26.297Z,25.37
2018-01-23T08:14:52.762Z,28.10
2018-01-23T08:17:19.115Z,25.63
2018-01-23T08:19:45.469Z,26.10
2018-01-23T08:22:12.617Z,26.50
2018-01-23T08:24:39.039Z,26.30
2018-01-23T08:27:05.415Z,23.37
2018-01-23T08:29:31.797Z,25.90
2018-01-23T08:31:58.198Z,25.97
2018-01-23T08:34:24.596Z,27.10
2018-01-23T08:36:51.380Z,26.63
2018-01-23T08:39:17.873Z,25.57
2018-01-23T08:41:44.250Z,26.63
2018-01-23T08:44:11.007Z,23.90
2018-01-23T08:46:37.971Z,24.77
2018-01-23T08:49:04.422Z,25.30
2018-01-23T08:51:30.793Z,27.57
2018-01-23T08:53:57.201Z,18.37
2018-01-23T08:56:25.361Z,23.87
2018-01-23T08:58:51.756Z,15.53
2018-01-23T09:01:18.157Z,21.73
2018-01-23T09:03:44.586Z,19.17
2018-01-23T09:06:11.094Z,21.40
2018-01-23T09:08:37.974Z,27.47
2018-01-23T09:11:05.072Z,21.37
2018-01-23T09:13:32.746Z,26.97
2018-01-23T09:15:59.168Z,23.43
2018-01-23T09:18:25.737Z,23.60
2018-01-23T09:20:52.174Z,25.87
2018-01-23T09:23:18.681Z,26.60
2018-01-23T09:25:45.572Z,24.90
2018-01-23T09:28:13.292Z,26.00
2018-01-23T09:30:42.478Z,27.20
2018-01-23T09:33:09.008Z,26.20
2018-01-23T09:35:35.769Z,25.20
2018-01-23T09:38:02.116Z,25.40
2018-01-23T09:40:29.272Z,22.60
2018-01-23T09:42:55.709Z,22.77
2018-01-23T09:45:22.627Z,20.60
2018-01-23T09:47:49.107Z,25.60
2018-01-23T09:50:16.291Z,23.93
2018-01-23T09:52:43.122Z,21.60
2018-01-23T09:55:11.168Z,25.77
2018-01-23T09:57:38.965Z,28.37
2018-01-23T10:00:05.468Z,23.50
2018-01-23T10:02:33.244Z,26.80
2018-01-23T10:05:01.240Z,27.63
2018-01-23T10:07:27.695Z,28.10
2018-01-23T10:09:54.727Z,24.47
2018-01-23T10:12:21.523Z,24.83
2018-01-23T10:14:47.921Z,25.60
2018-01-23T10:17:16.252Z,29.57
2018-01-23T10:19:42.791Z,24.03
2018-01-23T10:22:09.128Z,24.70
2018-01-23T10:24:35.542Z,24.30
2018-01-23T10:27:02.339Z,24.33
2018-01-23T10:29:29.443Z,21.80
2018-01-23T10:31:55.867Z,20.53
2018-01-23T10:34:22.728Z,22.97
2018-01-23T10:36:49.089Z,18.87
2018-01-23T10:39:15.492Z,25.07
2018-01-23T10:41:42.621Z,18.80
2018-01-23T10:44:09.054Z,21.03
2018-01-23T10:46:36.205Z,24.10
2018-01-23T10:49:03.121Z,20.53
2018-01-23T10:51:29.894Z,22.30
2018-01-23T10:53:57.653Z,22.20
2018-01-23T10:56:24.145Z,24.10
2018-01-23T10:58:50.677Z,23.67
2018-01-23T11:01:17.902Z,19.57
2018-01-23T11:03:44.748Z,23.23
2018-01-23T11:06:12.128Z,23.23
2018-01-23T11:08:39.362Z,24.00
2018-01-23T11:11:06.645Z,22.13
2018-01-23T11:13:32.992Z,22.60
2018-01-23T11:16:00.723Z,22.67
2018-01-23T11:18:27.254Z,24.53
2018-01-23T11:20:53.664Z,25.20
2018-01-23T11:23:21.564Z,20.90
2018-01-23T11:25:48.185Z,24.40
2018-01-23T11:28:14.623Z,19.33
2018-01-23T11:30:41.132Z,18.17
2018-01-23T11:33:08.348Z,25.07
2018-01-23T11:35:35.938Z,17.50
2018-01-23T11:38:02.361Z,22.40
2018-01-23T11:40:29.352Z,22.77
2018-01-23T11:42:56.924Z,13.37
2018-01-23T11:45:23.351Z,21.23
2018-01-23T11:47:51.303Z,25.00
2018-01-23T11:50:18.104Z,23.70
2018-01-23T11:52:44.905Z,26.27
2018-01-23T11:55:12.844Z,25.37
2018-01-23T11:57:40.105Z,25.33
2018-01-23T12:00:06.744Z,25.47
2018-01-23T12:02:34.875Z,25.20
2018-01-23T12:05:02.091Z,22.90
2018-01-23T12:07:28.577Z,19.37
2018-01-23T12:09:54.961Z,24.97
2018-01-23T12:12:21.844Z,26.53
2018-01-23T12:14:48.643Z,20.33
2018-01-23T12:17:15.205Z,28.07
2018-01-23T12:19:42.568Z,20.90
2018-01-23T12:22:08.957Z,24.57
2018-01-23T12:24:35.986Z,23.17
2018-01-23T12:27:04.346Z,21.30
2018-01-23T12:29:30.891Z,31.20
2018-01-23T12:31:57.334Z,25.63
2018-01-23T12:34:23.972Z,31.13
2018-01-23T12:36:50.817Z,32.37
2018-01-23T12:39:17.503Z,20.63
2018-01-23T12:41:44.496Z,21.37
2018-01-23T12:44:12.163Z,27.97
2018-01-23T12:46:38.746Z,20.77
2018-01-23T12:49:06.074Z,31.17
2018-01-23T12:51:33.283Z,75.97
2018-01-23T12:54:00.024Z,23.83
2018-01-23T12:56:28.066Z,29.20
2018-01-23T12:58:55.762Z,24.77
2018-01-23T13:01:23.769Z,23.93
2018-01-23T13:03:50.278Z,29.90
2018-01-23T13:06:17.098Z,21.07
2018-01-23T13:08:44.838Z,23.57
2018-01-23T13:11:11.308Z,21.40
2018-01-23T13:13:37.742Z,23.97
2018-01-23T13:16:04.813Z,21.07
2018-01-23T13:18:32.348Z,27.40
2018-01-23T13:21:00.098Z,23.00
2018-01-23T13:23:26.606Z,24.23
2018-01-23T13:25:53.136Z,25.27
2018-01-23T13:28:20.740Z,25.63
2018-01-23T13:30:48.050Z,20.30
2018-01-23T13:33:14.975Z,19.87
2018-01-23T13:35:41.682Z,25.30
2018-01-23T13:38:08.241Z,23.30
2018-01-23T13:40:34.812Z,29.47
2018-01-23T13:43:02.247Z,24.80
2018-01-23T13:45:29.254Z,22.97
2018-01-23T13:47:55.789Z,23.20
2018-01-23T13:50:22.211Z,27.27
2018-01-23T13:52:48.690Z,27.53
2018-01-23T13:55:15.859Z,27.33
2018-01-23T13:57:42.340Z,26.80
2018-01-23T14:00:09.316Z,26.23
2018-01-23T14:02:36.089Z,26.03
2018-01-23T14:05:03.315Z,28.30
2018-01-23T14:07:29.770Z,27.17
2018-01-23T14:09:57.916Z,26.40
2018-01-23T14:12:26.095Z,28.90
2018-01-23T14:14:53.033Z,29.50
2018-01-23T14:17:19.928Z,29.10
2018-01-23T14:19:47.220Z,31.33
2018-01-23T14:22:15.383Z,25.50
2018-01-23T14:24:42.657Z,28.33
2018-01-23T14:27:10.435Z,29.50
2018-01-23T14:29:37.380Z,30.43
2018-01-23T14:32:04.986Z,25.33
2018-01-23T14:34:33.276Z,29.30
2018-01-23T14:36:59.842Z,29.13
2018-01-23T14:39:27.066Z,29.50
2018-01-23T14:41:53.909Z,30.70
2018-01-23T14:44:21.148Z,29.00
2018-01-23T14:46:47.593Z,28.30
2018-01-23T14:49:14.213Z,25.70
2018-01-23T14:51:40.785Z,27.33
2018-01-23T14:54:08.992Z,30.00
2018-01-23T14:56:36.674Z,27.27
2018-01-23T14:59:03.937Z,30.10
2018-01-23T15:01:31.334Z,29.70
2018-01-23T15:03:57.911Z,23.30
2018-01-23T15:06:25.359Z,21.50
2018-01-23T15:08:51.748Z,27.70
2018-01-23T15:11:19.499Z,30.87
2018-01-23T15:13:48.050Z,31.07
2018-01-23T15:16:16.744Z,31.23
2018-01-23T15:18:44.057Z,30.80
2018-01-23T15:21:12.241Z,32.77
2018-01-23T15:23:39.243Z,29.27
2018-01-23T15:26:07.009Z,27.37
2018-01-23T15:28:34.188Z,24.20
2018-01-23T15:31:00.809Z,24.53
2018-01-23T15:33:27.813Z,26.20
2018-01-23T15:35:55.648Z,23.03
2018-01-23T15:38:23.546Z,27.80
2018-01-23T15:40:50.443Z,30.30
2018-01-23T15:43:18.129Z,30.43
2018-01-23T15:45:45.057Z,31.53
2018-01-23T15:48:11.941Z,29.40
2018-01-23T15:50:38.514Z,29.27
2018-01-23T15:53:05.828Z,26.33
2018-01-23T15:55:32.550Z,26.90
2018-01-23T15:58:00.051Z,30.00
2018-01-23T16:00:26.491Z,26.23
2018-01-23T16:02:54.373Z,25.07
2018-01-23T16:05:23.267Z,31.00
2018-01-23T16:07:49.757Z,32.77
2018-01-23T16:10:17.361Z,24.97
2018-01-23T16:12:43.977Z,34.83
2018-01-23T16:15:12.029Z,35.00
2018-01-23T16:17:38.807Z,33.17
2018-01-23T16:20:07.113Z,31.27
2018-01-23T16:22:33.670Z,31.60
2018-01-23T16:25:00.620Z,33.90
2018-01-23T16:27:27.142Z,32.60
2018-01-23T16:29:54.073Z,32.57
2018-01-23T16:32:21.401Z,36.77
2018-01-23T16:34:48.577Z,30.40
2018-01-23T16:37:15.771Z,34.70
2018-01-23T16:39:43.383Z,34.50
2018-01-23T16:42:09.774Z,27.80
2018-01-23T16:44:36.582Z,34.10
2018-01-23T16:47:03.412Z,31.77
2018-01-23T16:49:30.633Z,26.27
2018-01-23T16:51:57.153Z,34.50
2018-01-23T16:54:24.079Z,29.40
2018-01-23T16:56:50.495Z,31.80
2018-01-23T16:59:18.026Z,30.93
2018-01-23T17:01:45.955Z,33.13
2018-01-23T17:04:13.203Z,31.27
2018-01-23T17:06:40.106Z,32.27
2018-01-23T17:09:08.025Z,35.03
2018-01-23T17:11:34.522Z,37.47
2018-01-23T17:14:01.824Z,31.97
2018-01-23T17:16:28.618Z,31.20
2018-01-23T17:18:56.013Z,34.17
2018-01-23T17:21:23.372Z,37.00
2018-01-23T17:23:49.901Z,32.27
2018-01-23T17:26:16.539Z,35.50
2018-01-23T17:28:42.953Z,33.80
2018-01-23T17:31:10.225Z,34.17
2018-01-23T17:33:36.704Z,30.83
2018-01-23T17:36:04.961Z,33.90
2018-01-23T17:38:32.134Z,34.73
2018-01-23T17:40:58.635Z,35.07
2018-01-23T17:43:25.786Z,34.13
2018-01-23T17:45:52.237Z,30.93
2018-01-23T17:48:18.730Z,29.97
2018-01-23T17:50:47.248Z,31.97
2018-01-23T17:53:14.389Z,35.80
2018-01-23T17:55:41.913Z,33.30
2018-01-23T17:58:10.009Z,34.37
2018-01-23T18:00:37.060Z,32.80
2018-01-23T18:03:03.922Z,33.07
2018-01-23T18:05:30.386Z,33.07
2018-01-23T18:07:57.386Z,32.13
2018-01-23T18:10:25.224Z,32.97
2018-01-23T18:12:53.032Z,34.07
2018-01-23T18:15:19.760Z,34.27
2018-01-23T18:17:47.840Z,34.10
2018-01-23T18:20:15.026Z,33.27
2018-01-23T18:22:42.645Z,35.20
2018-01-23T18:25:10.318Z,34.13
2018-01-23T18:27:36.970Z,32.63
2018-01-23T18:30:03.462Z,35.97
2018-01-23T18:32:31.426Z,36.13
2018-01-23T18:34:58.114Z,32.93
2018-01-23T18:37:25.489Z,33.70
2018-01-23T18:39:51.928Z,33.13
2018-01-23T18:42:18.433Z,29.70
2018-01-23T18:44:44.901Z,34.33
2018-01-23T18:47:11.372Z,34.13
2018-01-23T18:49:37.771Z,35.30
2018-01-23T18:52:04.251Z,34.00
2018-01-23T18:54:31.158Z,35.20
2018-01-23T18:56:58.651Z,32.97
2018-01-23T18:59:25.192Z,31.00
2018-01-23T19:01:52.474Z,32.33
2018-01-23T19:04:19.134Z,29.40
2018-01-23T19:06:46.118Z,33.07
2018-01-23T19:09:12.897Z,26.23
2018-01-23T19:11:39.587Z,33.03
2018-01-23T19:14:07.128Z,31.57
2018-01-23T19:16:34.209Z,27.37
2018-01-23T19:19:01.109Z,29.97
2018-01-23T19:21:27.805Z,27.30
2018-01-23T19:23:56.216Z,28.57
2018-01-23T19:26:24.064Z,26.47
2018-01-23T19:28:50.643Z,28.07
2018-01-23T19:31:18.217Z,29.97
2018-01-23T19:33:44.713Z,29.27
2018-01-23T19:36:12.017Z,27.07
2018-01-23T19:38:39.052Z,27.00
2018-01-23T19:41:06.246Z,26.13
2018-01-23T19:43:33.815Z,29.40
2018-01-23T19:46:00.572Z,27.47
2018-01-23T19:48:27.351Z,23.23
2018-01-23T19:50:55.466Z,28.23
2018-01-23T19:53:23.797Z,26.37
2018-01-23T19:55:52.290Z,25.03
2018-01-23T19:58:19.593Z,27.30
2018-01-23T20:00:46.248Z,25.93
2018-01-23T20:03:13.650Z,23.40
2018-01-23T20:05:40.284Z,22.77
2018-01-23T20:08:07.830Z,14.53
2018-01-23T20:10:36.625Z,26.63
2018-01-23T20:13:03.819Z,24.27
2018-01-23T20:15:31.252Z,23.43
2018-01-23T20:17:58.518Z,19.10
2018-01-23T20:20:25.150Z,23.77
2018-01-23T20:22:53.715Z,25.67
2018-01-23T20:25:21.188Z,22.67
2018-01-23T20:27:48.229Z,26.20
2018-01-23T20:30:15.248Z,25.87
2018-01-23T20:32:42.235Z,25.27
2018-01-23T20:35:08.767Z,23.40
2018-01-23T20:37:35.671Z,24.73
2018-01-23T20:40:03.110Z,22.97
2018-01-23T20:42:30.930Z,22.90
2018-01-23T20:44:57.414Z,20.97
2018-01-23T20:47:24.113Z,20.00
2018-01-23T20:49:50.558Z,18.80
2018-01-23T20:52:17.376Z,19.23
2018-01-23T20:54:44.600Z,15.80
2018-01-23T20:57:12.184Z,17.90
2018-01-23T20:59:38.676Z,21.47
2018-01-23T21:02:06.720Z,18.20
2018-01-23T21:04:33.181Z,17.20
2018-01-23T21:07:06.675Z,18.37
2018-01-23T21:09:33.179Z,14.77
2018-01-23T21:12:00.335Z,18.00
2018-01-23T21:14:27.584Z,19.83
2018-01-23T21:16:54.448Z,18.33
2018-01-23T21:19:21.038Z,17.47
2018-01-23T21:21:49.117Z,18.90
2018-01-23T21:24:16.273Z,19.37
2018-01-23T21:26:43.266Z,18.53
2018-01-23T21:29:10.085Z,19.57
2018-01-23T21:31:36.525Z,17.53
2018-01-23T21:34:02.977Z,15.93
2018-01-23T21:36:29.496Z,18.33
2018-01-23T21:38:56.156Z,13.57
2018-01-23T21:41:23.739Z,17.93
2018-01-23T21:43:50.212Z,18.13
2018-01-23T21:46:16.746Z,16.17
2018-01-23T21:48:43.345Z,11.33
2018-01-23T21:51:10.175Z,16.47
2018-01-23T21:53:37.064Z,15.93
2018-01-23T21:56:03.907Z,13.03
2018-01-23T21:58:30.373Z,11.37
2018-01-23T22:00:57.286Z,10.70
2018-01-23T22:03:24.166Z,10.67
2018-01-23T22:05:52.109Z,10.70
2018-01-23T22:08:18.683Z,11.10
2018-01-23T22:10:46.238Z,11.20
2018-01-23T22:13:13.119Z,10.40
2018-01-23T22:15:39.572Z,10.57
2018-01-23T22:18:06.013Z,9.20
2018-01-23T22:20:32.505Z,9.33
2018-01-23T22:22:59.393Z,12.40
2018-01-23T22:25:25.855Z,12.67
2018-01-23T22:27:53.215Z,8.60
2018-01-23T22:30:19.723Z,9.87
2018-01-23T22:32:47.037Z,10.87
2018-01-23T22:35:13.471Z,11.70
2018-01-23T22:37:40.580Z,11.67
2018-01-23T22:40:07.780Z,10.00
2018-01-23T22:42:34.537Z,7.87
2018-01-23T22:45:00.972Z,8.37
2018-01-23T22:47:27.375Z,9.13
2018-01-23T22:49:53.760Z,9.97
2018-01-23T22:52:20.234Z,8.33
2018-01-23T22:54:47.323Z,7.83
2018-01-23T22:57:15.106Z,7.93
2018-01-23T22:59:41.514Z,7.47
2018-01-23T23:02:07.947Z,8.73
2018-01-23T23:04:41.287Z,8.27
2018-01-23T23:07:07.678Z,8.50
2018-01-23T23:09:34.145Z,10.40
2018-01-23T23:12:00.509Z,8.00
2018-01-23T23:14:26.947Z,6.70
2018-01-23T23:16:53.311Z,8.50
2018-01-23T23:19:19.676Z,8.53
2018-01-23T23:21:46.063Z,6.97
2018-01-23T23:24:13.155Z,7.73
2018-01-23T23:26:40.324Z,7.97
2018-01-23T23:29:07.474Z,10.33
2018-01-23T23:31:33.873Z,4.80
2018-01-23T23:34:00.391Z,7.40
2018-01-23T23:36:26.829Z,8.80
2018-01-23T23:38:53.275Z,7.60
2018-01-23T23:41:19.792Z,7.37
2018-01-23T23:43:46.404Z,7.57
2018-01-23T23:46:12.938Z,9.40
2018-01-23T23:48:39.571Z,8.97
2018-01-23T23:51:07.237Z,10.10
2018-01-23T23:53:33.721Z,9.17
2018-01-23T23:56:00.229Z,9.50
2018-01-23T23:58:26.700Z,11.23
